Time;durP1;ratioP1;P1;durP2;ratioP2;P2;SDS_P1;SDS_P2;PMS_P1;PMS_P2;Temp;Humidity;BMP_temperature;BMP_pressure;BME280_temperature;BME280_humidity;BME280_pressure;Samples;Min_cycle;Max_cycle;Signal;HPM_P1;HPM_P2
2023/05/01 00:00:17;;;;;;;5.13;3.23;;;;;;;13.09;63.61;99125.78;7318453;39;20376;31
2023/05/01 00:05:48;;;;;;;4.10;3.10;;;;;;;13.07;63.60;99132.44;7313598;39;20690;31
2023/05/01 00:11:20;;;;;;;4.47;3.23;;;;;;;12.95;63.71;99123.06;7325961;39;20327;31
2023/05/01 00:16:56;;;;;;;4.63;2.70;;;;;;;12.96;63.70;99113.94;7355466;39;20247;31
2023/05/01 00:22:16;;;;;;;3.20;2.65;;;;;;;12.96;63.88;99103.94;7399242;39;20334;31
2023/05/01 00:27:36;;;;;;;3.70;2.95;;;;;;;12.91;63.59;99102.81;7418870;39;20373;31
2023/05/01 00:33:12;;;;;;;5.20;3.35;;;;;;;12.98;63.84;99101.06;7376575;39;20396;31
2023/05/01 00:38:29;;;;;;;3.30;3.00;;;;;;;13.11;63.43;99101.31;7405536;39;20364;31
2023/05/01 00:43:46;;;;;;;3.97;3.23;;;;;;;13.13;63.64;99106.50;7415951;39;20353;31
2023/05/01 00:49:17;;;;;;;4.05;3.10;;;;;;;13.11;63.51;99098.59;7418392;39;20286;31
2023/05/01 00:59:54;;;;;;;2.80;2.50;;;;;;;13.01;63.23;99090.72;7435311;39;21252;31
2023/05/01 01:10:29;;;;;;;4.00;2.80;;;;;;;13.03;63.04;99074.31;7418052;39;21084;31
2023/05/01 01:21:06;;;;;;;3.85;2.80;;;;;;;13.09;62.83;99065.41;7377280;39;21333;31
2023/05/01 01:26:49;;;;;;;4.23;2.67;;;;;;;12.96;63.19;99065.22;7379882;39;20463;31
2023/05/01 01:37:42;;;;;;;3.20;2.60;;;;;;;12.90;62.61;99055.97;7397809;39;21227;31
2023/05/01 01:48:33;;;;;;;3.10;2.50;;;;;;;12.89;63.59;99059.72;7397475;39;21388;31
2023/05/01 01:59:10;;;;;;;3.47;2.75;;;;;;;12.73;63.07;99059.03;7476122;38;20389;31
2023/05/01 02:04:42;;;;;;;2.87;2.50;;;;;;;12.68;63.23;99056.87;7400723;39;20239;31
2023/05/01 02:10:14;;;;;;;5.15;2.80;;;;;;;12.62;63.79;99042.25;7397506;39;20247;31
2023/05/01 02:15:47;;;;;;;4.50;2.70;;;;;;;12.51;64.05;99048.06;7418024;39;20816;31
2023/05/01 02:21:34;;;;;;;4.05;2.60;;;;;;;12.55;63.20;99046.69;7362659;39;20274;31
2023/05/01 02:27:06;;;;;;;3.60;2.90;;;;;;;12.41;64.43;99047.50;7416138;39;20270;31
2023/05/01 02:37:41;;;;;;;3.60;2.70;;;;;;;12.25;64.88;99050.31;7435418;39;21077;31
2023/05/01 02:43:13;;;;;;;3.77;2.73;;;;;;;12.24;64.97;99043.25;7421242;39;20262;31
2023/05/01 02:48:45;;;;;;;3.10;2.23;;;;;;;12.28;64.36;99032.94;7417335;39;20480;31
2023/05/01 02:54:18;;;;;;;3.50;2.70;;;;;;;12.20;64.50;99023.84;7356027;39;20240;31
2023/05/01 02:59:50;;;;;;;3.97;2.63;;;;;;;12.17;64.98;99018.81;7356366;39;20239;31
2023/05/01 03:05:25;;;;;;;3.27;2.63;;;;;;;12.12;64.64;99012.25;7366115;39;20274;31
2023/05/01 03:10:58;;;;;;;3.73;2.60;;;;;;;12.16;64.53;99022.53;7355157;39;20239;31
2023/05/01 03:16:18;;;;;;;2.90;2.60;;;;;;;12.23;64.13;99019.13;7440322;39;20238;31
2023/05/01 03:21:38;;;;;;;5.55;2.70;;;;;;;12.08;64.88;99013.66;7437925;39;20238;31
2023/05/01 03:27:14;;;;;;;2.63;2.43;;;;;;;12.13;64.34;99005.84;7467036;39;20365;31
2023/05/01 03:32:49;;;;;;;3.05;2.40;;;;;;;12.27;63.96;98998.81;7473339;39;20648;31
2023/05/01 03:38:09;;;;;;;2.90;2.40;;;;;;;12.31;64.55;99006.38;7441147;39;20663;31
2023/05/01 03:43:40;;;;;;;3.00;2.40;;;;;;;12.34;64.19;98997.03;7376354;39;20327;31
2023/05/01 03:49:09;;;;;;;3.87;2.43;;;;;;;12.27;64.53;99005.06;7356613;39;20255;31
2023/05/01 03:54:41;;;;;;;2.80;2.30;;;;;;;12.23;64.50;99001.03;7316819;39;20337;31
2023/05/01 04:00:12;;;;;;;2.63;2.10;;;;;;;12.28;63.83;98995.94;7288074;39;20252;31
2023/05/01 04:05:44;;;;;;;3.17;2.30;;;;;;;12.33;63.63;98992.69;7334430;39;20260;31
2023/05/01 04:11:01;;;;;;;3.37;2.37;;;;;;;12.38;64.05;98999.19;7346834;39;20313;31
2023/05/01 04:16:32;;;;;;;3.80;3.10;;;;;;;12.30;63.46;98984.91;7377432;39;20372;31
2023/05/01 04:21:50;;;;;;;4.03;2.53;;;;;;;12.37;63.29;98984.03;7345283;39;20358;31
2023/05/01 04:27:22;;;;;;;3.00;2.53;;;;;;;12.38;63.41;98991.09;7387258;39;20242;31
2023/05/01 04:32:58;;;;;;;5.17;2.57;;;;;;;12.38;63.06;98992.94;7359059;39;20382;31
2023/05/01 04:38:30;;;;;;;3.47;2.40;;;;;;;12.39;63.42;98991.94;7413359;39;20238;31
2023/05/01 04:43:48;;;;;;;4.25;2.55;;;;;;;12.37;63.42;98996.69;7379483;39;20251;31
2023/05/01 04:49:20;;;;;;;3.33;2.50;;;;;;;12.40;64.13;98989.06;7417628;39;20657;31
2023/05/01 04:59:45;;;;;;;2.70;2.50;;;;;;;12.46;63.28;98999.12;7421604;39;21031;31
2023/05/01 05:05:18;;;;;;;15.47;2.50;;;;;;;12.47;63.38;99000.81;7429260;39;20369;31
2023/05/01 05:15:40;;;;;;;3.40;2.50;;;;;;;12.53;63.85;98986.56;7459401;39;20724;31
2023/05/01 05:21:18;;;;;;;2.70;2.20;;;;;;;12.52;63.51;98990.28;7430534;39;20482;31
2023/05/01 05:26:36;;;;;;;3.87;2.40;;;;;;;12.62;63.57;98987.31;7425555;39;20249;31
2023/05/01 05:32:11;;;;;;;4.25;2.60;;;;;;;12.74;63.35;98995.81;7397868;39;20304;31
2023/05/01 05:37:44;;;;;;;3.10;2.50;;;;;;;12.74;63.37;98995.81;7345671;39;20391;31
2023/05/01 05:43:01;;;;;;;2.80;2.53;;;;;;;12.80;63.66;98989.66;7350447;39;20400;31
2023/05/01 05:48:18;;;;;;;4.27;2.83;;;;;;;12.82;63.30;98996.56;7355714;39;21694;31
2023/05/01 05:53:53;;;;;;;4.37;2.70;;;;;;;12.86;63.52;98991.59;7311170;39;20599;31
2023/05/01 05:59:11;;;;;;;5.37;2.80;;;;;;;12.91;63.40;99000.00;7320009;39;20267;31
2023/05/01 06:04:28;;;;;;;3.60;2.63;;;;;;;12.94;62.90;99005.91;7331149;39;20259;31
2023/05/01 06:15:09;;;;;;;6.83;3.70;;;;;;;13.03;63.41;99009.38;7382676;39;21260;31
2023/05/01 06:20:41;;;;;;;6.67;3.17;;;;;;;13.07;62.06;98997.97;7340951;39;20607;31
2023/05/01 06:26:02;;;;;;;4.13;2.80;;;;;;;13.07;63.06;98991.72;7063908;39;20232;31
2023/05/01 06:31:33;;;;;;;4.33;3.90;;;;;;;13.07;62.40;98989.03;7279331;40;20249;31
2023/05/01 06:36:50;;;;;;;3.90;2.90;;;;;;;13.10;62.49;99002.16;7313243;39;20415;31
2023/05/01 06:42:21;;;;;;;5.67;2.80;;;;;;;13.18;62.64;98998.53;7259475;39;20368;31
2023/05/01 06:47:57;;;;;;;3.03;2.73;;;;;;;13.29;62.67;98998.09;7346924;39;20239;31
2023/05/01 06:53:14;;;;;;;2.90;2.60;;;;;;;13.43;62.56;99006.16;7356105;39;21206;31
2023/05/01 06:58:31;;;;;;;4.63;3.00;;;;;;;13.52;61.59;99010.44;7364350;39;20235;31
2023/05/01 07:04:07;;;;;;;3.95;2.70;;;;;;;13.54;62.02;98999.44;7443000;39;20246;31
2023/05/01 07:09:39;;;;;;;3.00;2.70;;;;;;;13.48;61.23;98987.47;7412405;39;20352;31
2023/05/01 07:14:57;;;;;;;4.43;3.00;;;;;;;13.53;61.35;98993.16;7377909;39;20258;31
2023/05/01 07:20:30;;;;;;;3.13;2.73;;;;;;;13.62;61.23;98996.59;7376087;39;20263;31
2023/05/01 07:25:50;;;;;;;4.05;3.10;;;;;;;13.77;61.69;99004.69;7423998;39;20312;31
2023/05/01 07:31:25;;;;;;;5.97;3.20;;;;;;;13.89;61.35;99005.84;7510540;38;21370;31
2023/05/01 07:42:05;;;;;;;3.95;3.10;;;;;;;13.90;60.88;99000.25;7506907;38;20351;31
2023/05/01 07:52:25;;;;;;;5.35;3.45;;;;;;;13.92;61.09;98998.19;7522680;38;20240;31
2023/05/01 07:58:01;;;;;;;5.50;3.60;;;;;;;13.98;61.35;98997.41;7398298;39;20459;31
2023/05/01 08:03:33;;;;;;;4.74;3.32;;;;;;;14.07;61.59;98990.00;7460226;39;20320;31
2023/05/01 08:09:05;;;;;;;5.10;2.90;;;;;;;14.26;61.36;98996.66;7416595;39;20278;31
2023/05/01 08:14:38;;;;;;;5.10;3.35;;;;;;;14.50;60.95;99003.53;7342171;39;20259;31
2023/05/01 08:20:13;;;;;;;3.85;3.35;;;;;;;14.78;60.22;98996.25;7334601;39;20263;31
2023/05/01 08:25:45;;;;;;;5.23;3.43;;;;;;;14.71;59.91;98998.06;7338169;39;20258;31
2023/05/01 08:31:18;;;;;;;5.40;4.40;;;;;;;14.73;59.85;98994.13;7375096;39;20313;31
2023/05/01 08:36:48;;;;;;;6.27;5.67;;;;;;;14.82;60.24;98997.53;7406114;39;20319;31
2023/05/01 08:42:23;;;;;;;5.67;3.83;;;;;;;14.85;59.78;99000.69;7354708;39;21672;31
2023/05/01 08:53:00;;;;;;;5.85;3.50;;;;;;;14.98;60.41;98989.06;7392831;39;21163;31
2023/05/01 08:58:33;;;;;;;4.70;3.33;;;;;;;15.02;59.91;98987.63;7369984;39;20361;31
2023/05/01 09:04:07;;;;;;;4.35;3.90;;;;;;;15.07;59.92;98995.16;7417301;39;20247;31
2023/05/01 09:09:43;;;;;;;5.05;4.10;;;;;;;15.16;59.25;98983.94;7398378;39;20339;31
2023/05/01 09:15:15;;;;;;;5.60;3.90;;;;;;;15.28;59.91;98985.03;7381161;39;20371;31
2023/05/01 09:20:47;;;;;;;4.47;3.80;;;;;;;16.00;58.61;98981.75;7407914;39;21658;31
2023/05/01 09:31:35;;;;;;;4.90;3.50;;;;;;;16.96;55.76;98972.13;7440435;39;20341;31
2023/05/01 09:36:55;;;;;;;5.90;3.57;;;;;;;17.23;55.47;98982.94;7456959;39;20531;31
2023/05/01 09:47:36;;;;;;;5.43;3.87;;;;;;;16.93;56.62;98983.47;7417428;39;21058;31
2023/05/01 09:58:12;;;;;;;5.80;5.30;;;;;;;16.89;56.90;98976.75;7386867;39;21194;31
2023/05/01 10:03:45;;;;;;;6.80;5.40;;;;;;;16.96;56.66;98979.47;7357074;39;20262;31
2023/05/01 10:09:17;;;;;;;4.97;4.40;;;;;;;16.83;56.11;98983.03;7335125;39;20240;31
2023/05/01 10:14:49;;;;;;;4.76;3.86;;;;;;;16.67;56.61;98984.31;7416856;39;20258;31
2023/05/01 10:20:23;;;;;;;5.20;4.30;;;;;;;17.00;56.61;98991.59;7323634;39;20239;31
2023/05/01 10:25:55;;;;;;;10.30;4.80;;;;;;;17.40;56.05;98978.69;7407201;39;20286;31
2023/05/01 10:31:28;;;;;;;5.27;4.53;;;;;;;17.58;55.60;98976.12;7404721;39;20413;31
2023/05/01 10:37:00;;;;;;;5.00;4.50;;;;;;;17.40;55.55;98981.41;7408815;39;20308;31
2023/05/01 10:42:17;;;;;;;5.47;4.97;;;;;;;16.93;55.99;98972.56;7418360;39;20254;31
2023/05/01 10:47:58;;;;;;;6.73;5.53;;;;;;;16.80;56.07;98971.75;7429908;39;20243;31
2023/05/01 10:53:32;;;;;;;6.25;5.30;;;;;;;17.06;56.05;98979.87;7438098;39;20242;31
2023/05/01 10:59:11;;;;;;;5.83;5.23;;;;;;;17.17;56.49;98972.91;7438509;39;20604;31
2023/05/01 11:05:02;;;;;;;5.57;5.00;;;;;;;17.18;56.36;98969.12;7425671;39;20284;31
2023/05/01 11:10:43;;;;;;;6.13;4.40;;;;;;;17.25;56.63;98957.16;7440178;39;20269;31
2023/05/01 11:21:19;;;;;;;6.07;5.43;;;;;;;17.30;56.93;98956.50;7439139;39;20361;31
2023/05/01 11:26:55;;;;;;;6.10;4.90;;;;;;;17.26;57.01;98963.44;7385348;39;20321;31
2023/05/01 11:32:30;;;;;;;7.77;6.30;;;;;;;17.27;58.21;98951.50;7376397;39;20247;31
2023/05/01 11:38:02;;;;;;;8.00;6.17;;;;;;;17.29;57.57;98961.12;7373830;39;20288;31
2023/05/01 11:43:35;;;;;;;6.20;5.60;;;;;;;17.38;58.34;98948.09;7378870;39;20463;31
2023/05/01 11:49:08;;;;;;;6.30;5.70;;;;;;;17.58;57.68;98959.78;7394635;39;20414;31
2023/05/01 11:54:39;;;;;;;6.90;5.97;;;;;;;17.63;57.21;98946.34;7442926;39;20243;31
2023/05/01 12:00:15;;;;;;;6.40;5.70;;;;;;;17.48;56.95;98932.97;7444582;39;20238;31
2023/05/01 12:05:47;;;;;;;8.25;6.70;;;;;;;17.56;58.14;98932.69;7437369;39;20543;31
2023/05/01 12:11:20;;;;;;;7.63;6.90;;;;;;;17.70;57.79;98927.22;7464864;39;20255;31
2023/05/01 12:16:52;;;;;;;6.53;5.87;;;;;;;17.73;57.83;98921.31;7401935;39;20250;31
2023/05/01 12:22:25;;;;;;;6.10;5.37;;;;;;;18.05;57.15;98933.91;7398726;39;20259;31
2023/05/01 12:27:54;;;;;;;6.30;5.57;;;;;;;17.92;56.83;98940.28;7412627;39;20293;31
2023/05/01 12:33:27;;;;;;;6.10;5.45;;;;;;;17.83;56.73;98941.59;7439638;39;20337;31
2023/05/01 12:39:08;;;;;;;7.63;6.67;;;;;;;17.92;57.00;98934.00;7375306;39;20302;31
2023/05/01 12:44:40;;;;;;;6.87;6.27;;;;;;;18.08;56.76;98938.91;7386187;39;20277;31
2023/05/01 12:55:18;;;;;;;6.30;5.70;;;;;;;18.14;56.33;98929.00;7432146;39;21307;31
2023/05/01 13:06:04;;;;;;;7.20;6.50;;;;;;;18.11;57.31;98935.75;7514771;38;20329;31
2023/05/01 13:11:40;;;;;;;7.05;6.35;;;;;;;18.11;57.03;98929.47;7171927;39;20238;31
2023/05/01 13:17:12;;;;;;;6.80;6.00;;;;;;;18.01;57.57;98928.06;7461599;39;20386;31
2023/05/01 13:22:47;;;;;;;6.80;6.10;;;;;;;18.12;57.47;98931.97;7415800;39;20338;31
2023/05/01 13:28:18;;;;;;;6.20;5.60;;;;;;;18.12;56.57;98922.94;7376370;39;20270;31
2023/05/01 13:33:50;;;;;;;6.50;5.90;;;;;;;18.16;57.29;98916.81;7385980;39;21231;31
2023/05/01 13:39:07;;;;;;;6.60;6.00;;;;;;;18.24;57.29;98921.16;7376371;39;20253;31
2023/05/01 13:44:40;;;;;;;8.20;7.40;;;;;;;18.08;57.40;98914.34;7397290;39;20242;31
2023/05/01 13:50:00;;;;;;;6.40;5.80;;;;;;;18.35;57.50;98907.62;7393278;39;20243;31
2023/05/01 13:55:32;;;;;;;5.97;5.37;;;;;;;18.60;56.68;98899.47;7353824;39;20289;31
2023/05/01 14:06:09;;;;;;;9.15;5.50;;;;;;;18.86;55.99;98888.25;7395099;39;20318;31
2023/05/01 14:11:41;;;;;;;7.30;6.17;;;;;;;18.86;55.17;98879.22;7434586;39;20241;31
2023/05/01 14:17:16;;;;;;;8.15;6.95;;;;;;;18.93;55.75;98879.97;7464629;39;20838;31
2023/05/01 14:22:55;;;;;;;8.95;6.75;;;;;;;19.00;56.18;98879.91;7486354;39;21340;31
2023/05/01 14:28:30;;;;;;;7.80;6.33;;;;;;;19.29;54.32;98876.38;7486785;39;20253;31
2023/05/01 14:34:06;;;;;;;6.30;5.70;;;;;;;19.30;54.89;98872.56;7463561;39;20865;31
2023/05/01 14:39:42;;;;;;;6.75;5.55;;;;;;;19.39;55.04;98878.56;7443887;39;21376;31
2023/05/01 14:45:14;;;;;;;6.35;5.70;;;;;;;19.25;54.77;98881.47;7485325;39;21863;31
2023/05/01 14:50:49;;;;;;;7.63;6.17;;;;;;;19.33;54.85;98883.03;7511318;38;20245;31
2023/05/01 14:56:25;;;;;;;6.43;5.83;;;;;;;19.10;54.50;98871.97;7462940;39;20791;31
2023/05/01 15:01:42;;;;;;;6.93;5.03;;;;;;;18.91;55.62;98880.19;7441146;39;20237;31
2023/05/01 15:06:59;;;;;;;6.40;5.05;;;;;;;18.90;56.01;98878.53;7356403;39;20263;31
2023/05/01 15:12:32;;;;;;;5.70;5.20;;;;;;;18.80;56.61;98913.72;7332303;39;20348;31
2023/05/01 15:18:04;;;;;;;11.50;7.20;;;;;;;18.47;60.12;98954.16;7371974;39;20242;31
2023/05/01 15:23:36;;;;;;;9.00;6.93;;;;;;;17.86;67.07;98973.03;7417445;39;20344;31
2023/05/01 15:29:10;;;;;;;10.17;5.47;;;;;;;17.19;67.30;98996.16;7443242;39;20235;31
2023/05/01 15:34:27;;;;;;;7.60;3.80;;;;;;;16.62;65.88;98951.47;7510035;38;21849;31
2023/05/01 15:40:04;;;;;;;11.07;3.30;;;;;;;16.06;66.89;98945.56;7438296;39;20366;31
2023/05/01 15:45:42;;;;;;;3.57;2.47;;;;;;;15.94;67.79;98966.25;7416551;39;20436;31
2023/05/01 15:50:57;;;;;;;4.17;2.57;;;;;;;16.11;66.67;98974.84;7396056;39;20271;31
2023/05/01 16:01:34;;;;;;;5.42;2.82;;;;;;;16.48;67.37;98966.09;7454168;38;21151;31
2023/05/01 16:07:09;;;;;;;3.27;2.50;;;;;;;16.59;67.73;98965.47;7468708;39;20339;31
2023/05/01 16:12:41;;;;;;;3.80;2.70;;;;;;;16.62;67.64;98973.25;7395735;39;20251;31
2023/05/01 16:18:14;;;;;;;4.70;3.40;;;;;;;16.51;67.17;98978.44;7377629;39;20335;31
2023/05/01 16:23:46;;;;;;;7.30;5.00;;;;;;;16.40;67.83;98960.03;7355243;39;20453;31
2023/05/01 16:29:16;;;;;;;5.73;3.60;;;;;;;16.18;68.25;98970.28;7396057;39;20259;31
2023/05/01 16:34:49;;;;;;;3.00;2.70;;;;;;;16.15;67.81;98979.66;7421134;39;20259;31
2023/05/01 16:40:19;;;;;;;2.63;2.43;;;;;;;16.12;69.72;98973.81;7380661;39;20358;31
2023/05/01 16:45:52;;;;;;;3.90;3.40;;;;;;;16.23;70.17;98975.94;7411951;39;20259;31
2023/05/01 16:51:25;;;;;;;4.70;4.10;;;;;;;16.30;69.58;98979.47;7420449;39;20261;31
2023/05/01 16:57:01;;;;;;;18.10;16.33;;;;;;;16.25;69.99;98979.25;7395117;39;20272;31
2023/05/01 17:02:35;;;;;;;4.10;3.70;;;;;;;16.26;70.33;98975.50;7445103;39;20264;31
2023/05/01 17:08:08;;;;;;;4.27;3.50;;;;;;;16.19;71.73;98994.53;7396233;39;20247;31
2023/05/01 17:13:40;;;;;;;4.60;2.70;;;;;;;16.03;71.07;99011.25;7397132;39;20273;31
2023/05/01 17:24:15;;;;;;;4.05;3.10;;;;;;;15.99;70.39;99017.28;7429586;39;20351;31
2023/05/01 17:34:37;;;;;;;3.50;3.20;;;;;;;15.81;70.27;99023.31;7481917;38;20379;31
2023/05/01 17:45:16;;;;;;;6.10;3.20;;;;;;;15.74;70.25;99020.59;7414501;39;20263;31
2023/05/01 17:50:33;;;;;;;3.40;3.10;;;;;;;15.85;70.30;99035.44;7398232;39;20339;31
2023/05/01 17:55:53;;;;;;;4.13;3.27;;;;;;;15.94;71.37;99023.34;7457224;38;21230;31
2023/05/01 18:01:29;;;;;;;7.33;5.80;;;;;;;15.87;71.48;99027.94;7487640;38;21938;31
2023/05/01 18:06:49;;;;;;;7.20;5.04;;;;;;;15.84;72.03;99032.97;7488778;38;20767;31
2023/05/01 18:17:26;;;;;;;5.00;4.60;;;;;;;15.85;72.50;99032.72;7460231;39;20254;31
2023/05/01 18:28:07;;;;;;;4.80;3.70;;;;;;;15.79;73.04;99039.00;7476276;38;21304;31
2023/05/01 18:33:42;;;;;;;4.25;3.70;;;;;;;15.75;73.49;99038.53;7439767;39;20238;31
2023/05/01 18:39:03;;;;;;;3.90;3.60;;;;;;;15.68;73.12;99039.56;7419570;39;20382;31
2023/05/01 18:44:37;;;;;;;4.10;3.80;;;;;;;15.64;73.53;99043.72;7420737;39;20246;31
2023/05/01 18:50:15;;;;;;;4.73;4.20;;;;;;;15.57;73.93;99059.19;7374766;39;20246;31
2023/05/01 18:55:31;;;;;;;5.67;4.37;;;;;;;15.57;73.91;99064.63;7417888;39;20238;31
2023/05/01 19:00:51;;;;;;;4.30;3.90;;;;;;;15.54;74.16;99070.44;7413158;39;20263;31
2023/05/01 19:06:23;;;;;;;5.07;4.57;;;;;;;15.45;74.98;99077.03;7396453;39;20361;31
2023/05/01 19:16:45;;;;;;;5.67;4.40;;;;;;;15.41;73.96;99089.34;7481057;38;21135;31
2023/05/01 19:22:17;;;;;;;5.35;3.50;;;;;;;15.38;74.10;99104.19;7397244;39;20240;31
2023/05/01 19:27:34;;;;;;;4.40;3.83;;;;;;;15.40;74.15;99106.69;7440915;39;20250;31
2023/05/01 19:33:09;;;;;;;4.70;3.10;;;;;;;15.29;73.96;99119.78;7415430;39;20255;31
2023/05/01 19:43:46;;;;;;;4.35;3.20;;;;;;;15.16;74.35;99138.69;7405903;39;20268;31
2023/05/01 19:49:03;;;;;;;3.90;3.50;;;;;;;15.21;74.58;99147.09;7422414;39;20385;31
2023/05/01 19:54:21;;;;;;;4.00;3.60;;;;;;;15.14;74.20;99145.34;7421589;39;20257;31
2023/05/01 19:59:57;;;;;;;4.85;3.20;;;;;;;15.01;74.68;99145.25;7379070;39;20235;31
2023/05/01 20:05:31;;;;;;;4.30;3.50;;;;;;;15.00;74.86;99146.31;7414203;39;20338;31
2023/05/01 20:10:46;;;;;;;3.83;3.43;;;;;;;14.99;74.51;99159.03;7258886;39;20262;31
2023/05/01 20:16:22;;;;;;;4.23;3.90;;;;;;;14.86;76.29;99169.78;7429508;39;20246;31
2023/05/01 20:21:54;;;;;;;4.20;3.80;;;;;;;14.82;75.65;99161.19;7419598;39;20255;31
2023/05/01 20:27:11;;;;;;;4.07;3.73;;;;;;;14.83;75.36;99164.75;7399759;39;20381;31
2023/05/01 20:32:45;;;;;;;4.50;4.05;;;;;;;14.81;76.08;99161.38;7420842;39;20278;31
2023/05/01 20:38:17;;;;;;;4.43;4.03;;;;;;;14.77;76.51;99176.34;7378813;39;20243;31
2023/05/01 20:43:34;;;;;;;5.05;3.60;;;;;;;14.75;76.04;99187.41;7359223;39;20240;31
2023/05/01 20:49:08;;;;;;;4.00;3.60;;;;;;;14.68;75.64;99183.78;7394723;39;20469;31
2023/05/01 20:54:23;;;;;;;4.20;3.80;;;;;;;14.66;75.95;99185.00;7419032;39;21132;31
2023/05/01 20:59:40;;;;;;;3.40;3.10;;;;;;;14.57;76.38;99210.59;7445717;38;20240;31
2023/05/01 21:05:16;;;;;;;4.90;3.20;;;;;;;14.54;75.62;99200.09;7442371;39;20258;31
2023/05/01 21:10:36;;;;;;;6.00;3.50;;;;;;;14.54;75.51;99216.37;7490776;38;20235;31
2023/05/01 21:16:08;;;;;;;3.80;3.50;;;;;;;14.55;75.99;99226.22;7469760;39;20329;31
2023/05/01 21:21:39;;;;;;;4.07;3.57;;;;;;;14.54;75.98;99214.50;7444895;39;21244;31
2023/05/01 21:26:57;;;;;;;4.43;3.50;;;;;;;14.60;75.63;99229.19;7487258;38;20257;31
2023/05/01 21:32:31;;;;;;;4.76;3.80;;;;;;;14.59;76.15;99224.78;7439162;39;20251;31
2023/05/01 21:38:03;;;;;;;4.37;3.97;;;;;;;14.57;76.60;99229.59;7439031;39;20350;31
2023/05/01 21:43:35;;;;;;;4.35;3.85;;;;;;;14.48;76.16;99230.72;7444309;39;20321;31
2023/05/01 21:49:10;;;;;;;6.70;3.60;;;;;;;14.30;76.89;99236.53;7442301;39;21224;31
2023/05/01 21:54:42;;;;;;;4.10;3.37;;;;;;;14.20;76.89;99244.09;7458017;39;20309;31
2023/05/01 22:00:14;;;;;;;6.20;4.20;;;;;;;14.27;77.14;99251.28;7417704;39;20254;31
2023/05/01 22:05:35;;;;;;;3.53;3.23;;;;;;;14.36;76.58;99257.47;7395184;39;20263;31
2023/05/01 22:16:13;;;;;;;3.44;3.04;;;;;;;14.28;76.48;99257.56;7459564;39;20268;31
2023/05/01 22:26:49;;;;;;;3.00;2.70;;;;;;;14.15;76.22;99276.34;7440508;39;21240;31
2023/05/01 22:37:26;;;;;;;3.30;3.00;;;;;;;13.96;75.69;99277.75;7457665;39;21119;31
2023/05/01 22:42:44;;;;;;;5.43;3.07;;;;;;;13.92;76.38;99279.16;7355621;39;20453;31
2023/05/01 22:48:15;;;;;;;3.63;3.30;;;;;;;13.97;76.62;99295.69;7386401;39;20270;31
2023/05/01 22:53:48;;;;;;;3.90;3.50;;;;;;;13.90;76.59;99294.75;7396783;39;20378;31
2023/05/01 22:59:23;;;;;;;3.80;3.40;;;;;;;13.87;77.29;99295.13;7405819;39;20259;31
2023/05/01 23:04:43;;;;;;;5.30;3.40;;;;;;;13.87;77.31;99301.38;7444363;39;20359;31
2023/05/01 23:10:20;;;;;;;4.20;3.10;;;;;;;13.87;76.76;99298.66;7397847;39;20251;31
2023/05/01 23:15:52;;;;;;;5.25;3.20;;;;;;;13.84;76.82;99298.19;7403208;39;20239;31
2023/05/01 23:21:24;;;;;;;4.43;3.30;;;;;;;13.76;76.94;99301.00;7400190;39;20251;31
2023/05/01 23:26:58;;;;;;;4.60;2.90;;;;;;;13.67;76.28;99297.53;7404900;39;20257;31
2023/05/01 23:32:26;;;;;;;4.55;3.10;;;;;;;13.55;76.31;99304.41;7398243;39;21075;31
2023/05/01 23:37:44;;;;;;;5.15;3.10;;;;;;;13.38;77.19;99300.16;7380621;39;20296;31
2023/05/01 23:43:15;;;;;;;3.90;3.30;;;;;;;13.17;77.27;99298.13;7336062;39;20262;31
2023/05/01 23:48:46;;;;;;;3.30;3.00;;;;;;;13.07;77.19;99300.22;7392062;39;20233;31
2023/05/01 23:54:04;;;;;;;3.63;2.90;;;;;;;13.02;77.05;99297.19;7404779;39;20425;31
